createdAt,value
2022-10-19T00:00:00.000Z,21.44
2022-10-19T00:15:00.000Z,22.13
2022-10-19T00:30:00.000Z,21.81
2022-10-19T00:45:00.000Z,21.79
2022-10-19T01:00:00.000Z,22.28
2022-10-19T01:15:00.000Z,22.59
2022-10-19T01:30:00.000Z,23.71
2022-10-19T01:45:00.000Z,25.18
2022-10-19T02:15:00.000Z,22.5
2022-10-19T02:15:00.000Z,24.14
2022-10-19T02:45:00.000Z,25
2022-10-19T02:45:00.000Z,23.94
2022-10-19T03:00:00.000Z,25.26
2022-10-19T03:15:00.000Z,25.02
2022-10-19T03:30:00.000Z,24.8
2022-10-19T03:45:00.000Z,29.78
2022-10-19T04:00:00.000Z,30.98
2022-10-19T04:15:00.000Z,28.69
2022-10-19T04:30:00.000Z,27.75
2022-10-19T04:45:00.000Z,29.79
2022-10-19T05:00:00.000Z,31.29
2022-10-19T05:15:00.000Z,29.54
2022-10-19T05:30:00.000Z,32.44
2022-10-19T05:45:00.000Z,35.87
2022-10-19T06:00:00.000Z,38.55
2022-10-19T06:15:00.000Z,38.33
2022-10-19T06:30:00.000Z,38.67
2022-10-19T06:45:00.000Z,39.26
2022-10-19T07:00:00.000Z,36.59
2022-10-19T07:15:00.000Z,36.46
2022-10-19T07:30:00.000Z,39.45
2022-10-19T07:45:00.000Z,42.51
2022-10-19T08:00:00.000Z,42.45
2022-10-19T08:15:00.000Z,41.09
2022-10-19T08:30:00.000Z,38.86
2022-10-19T08:45:00.000Z,37.06
2022-10-19T09:00:00.000Z,37.62
2022-10-19T09:15:00.000Z,39.04
2022-10-19T09:30:00.000Z,38.21
2022-10-19T09:45:00.000Z,38.61
2022-10-19T10:00:00.000Z,37.19
2022-10-19T10:15:00.000Z,34.92
2022-10-19T10:30:00.000Z,35.27
2022-10-19T10:45:00.000Z,34.35
2022-10-19T11:00:00.000Z,30.47
2022-10-19T11:15:00.000Z,33.2
2022-10-19T11:30:00.000Z,36.95
2022-10-19T11:45:00.000Z,33.75
2022-10-19T12:00:00.000Z,29.81
2022-10-19T12:15:00.000Z,25.73
2022-10-19T12:30:00.000Z,24.82
2022-10-19T12:45:00.000Z,24.81
2022-10-19T13:00:00.000Z,26.53
2022-10-19T13:15:00.000Z,28.81
2022-10-19T13:30:00.000Z,29.49
2022-10-19T13:45:00.000Z,27.04
2022-10-19T14:00:00.000Z,27.48
2022-10-19T14:15:00.000Z,25.56
2022-10-19T14:30:00.000Z,23.81
2022-10-19T14:45:00.000Z,22.6
2022-10-19T15:00:00.000Z,21.69
2022-10-19T15:15:00.000Z,20.96
2022-10-19T15:30:00.000Z,21.74
2022-10-19T15:45:00.000Z,21.89
2022-10-19T16:00:00.000Z,22.18
2022-10-19T16:15:00.000Z,20.81
2022-10-19T16:30:00.000Z,20.13
2022-10-19T16:45:00.000Z,20.82
2022-10-19T17:00:00.000Z,23.16
2022-10-19T17:15:00.000Z,21.98
2022-10-19T17:30:00.000Z,23.86
2022-10-19T17:45:00.000Z,23.08
2022-10-19T18:00:00.000Z,28.39
2022-10-19T18:15:00.000Z,47.38
2022-10-19T18:30:00.000Z,35.75
2022-10-19T18:45:00.000Z,28.08
2022-10-19T19:00:00.000Z,31.76
2022-10-19T19:15:00.000Z,28.62
2022-10-19T19:30:00.000Z,30.59
2022-10-19T19:45:00.000Z,34.34
2022-10-19T20:00:00.000Z,34.14
2022-10-19T20:15:00.000Z,36.54
2022-10-19T20:30:00.000Z,44.75
2022-10-19T20:45:00.000Z,36.14
2022-10-19T21:00:00.000Z,34.2
2022-10-19T21:15:00.000Z,34.07
2022-10-19T21:30:00.000Z,40.62
2022-10-19T21:45:00.000Z,37.85
2022-10-19T22:00:00.000Z,35.84
2022-10-19T22:15:00.000Z,34.24
2022-10-19T22:30:00.000Z,39.01
2022-10-19T22:45:00.000Z,43.76
2022-10-19T23:00:00.000Z,46.14
2022-10-19T23:15:00.000Z,43.99
2022-10-19T23:30:00.000Z,40.38
2022-10-19T23:45:00.000Z,37.61
